sensor_id;sensor_type;location;lat;lon;timestamp;P1;durP1;ratioP1;P2;durP2;ratioP2
44026;SDS011;29696;55.698;37.460;2023-05-07T00:01:12;6.03;;;4.10;;
44026;SDS011;29696;55.698;37.460;2023-05-07T00:03:39;5.67;;;4.17;;
44026;SDS011;29696;55.698;37.460;2023-05-07T00:06:05;7.57;;;4.70;;
44026;SDS011;29696;55.698;37.460;2023-05-07T00:08:32;7.33;;;5.53;;
44026;SDS011;29696;55.698;37.460;2023-05-07T00:10:58;6.53;;;4.80;;
44026;SDS011;29696;55.698;37.460;2023-05-07T00:13:24;7.40;;;3.60;;
44026;SDS011;29696;55.698;37.460;2023-05-07T00:15:51;9.27;;;5.83;;
44026;SDS011;29696;55.698;37.460;2023-05-07T00:18:17;9.40;;;4.43;;
44026;SDS011;29696;55.698;37.460;2023-05-07T00:20:47;9.03;;;4.73;;
44026;SDS011;29696;55.698;37.460;2023-05-07T00:23:13;8.73;;;4.70;;
44026;SDS011;29696;55.698;37.460;2023-05-07T00:25:39;10.17;;;4.77;;
44026;SDS011;29696;55.698;37.460;2023-05-07T00:28:06;12.63;;;5.43;;
44026;SDS011;29696;55.698;37.460;2023-05-07T00:30:32;6.97;;;4.70;;
44026;SDS011;29696;55.698;37.460;2023-05-07T00:32:59;5.00;;;4.40;;
44026;SDS011;29696;55.698;37.460;2023-05-07T00:35:25;9.10;;;4.70;;
44026;SDS011;29696;55.698;37.460;2023-05-07T00:37:52;10.13;;;6.20;;
44026;SDS011;29696;55.698;37.460;2023-05-07T00:40:18;6.17;;;4.33;;
44026;SDS011;29696;55.698;37.460;2023-05-07T00:42:44;8.23;;;4.80;;
44026;SDS011;29696;55.698;37.460;2023-05-07T00:45:13;8.47;;;4.50;;
44026;SDS011;29696;55.698;37.460;2023-05-07T00:47:40;9.50;;;5.37;;
44026;SDS011;29696;55.698;37.460;2023-05-07T00:50:07;6.33;;;4.33;;
44026;SDS011;29696;55.698;37.460;2023-05-07T00:52:35;9.87;;;4.70;;
44026;SDS011;29696;55.698;37.460;2023-05-07T00:55:04;6.93;;;4.67;;
44026;SDS011;29696;55.698;37.460;2023-05-07T00:57:34;5.47;;;4.60;;
44026;SDS011;29696;55.698;37.460;2023-05-07T01:00:03;5.83;;;3.93;;
44026;SDS011;29696;55.698;37.460;2023-05-07T01:02:32;5.57;;;4.03;;
44026;SDS011;29696;55.698;37.460;2023-05-07T01:04:59;10.37;;;4.93;;
44026;SDS011;29696;55.698;37.460;2023-05-07T01:07:26;5.67;;;4.63;;
44026;SDS011;29696;55.698;37.460;2023-05-07T01:09:53;6.73;;;3.83;;
44026;SDS011;29696;55.698;37.460;2023-05-07T01:12:20;16.87;;;5.30;;
44026;SDS011;29696;55.698;37.460;2023-05-07T01:14:48;10.43;;;4.33;;
44026;SDS011;29696;55.698;37.460;2023-05-07T01:17:16;5.77;;;3.77;;
44026;SDS011;29696;55.698;37.460;2023-05-07T01:19:45;12.33;;;4.53;;
44026;SDS011;29696;55.698;37.460;2023-05-07T01:22:11;8.77;;;4.60;;
44026;SDS011;29696;55.698;37.460;2023-05-07T01:24:49;5.43;;;4.07;;
44026;SDS011;29696;55.698;37.460;2023-05-07T01:27:17;6.47;;;4.47;;
44026;SDS011;29696;55.698;37.460;2023-05-07T01:29:43;5.97;;;4.27;;
44026;SDS011;29696;55.698;37.460;2023-05-07T01:32:10;6.03;;;4.60;;
44026;SDS011;29696;55.698;37.460;2023-05-07T01:34:39;7.23;;;5.27;;
44026;SDS011;29696;55.698;37.460;2023-05-07T01:37:06;7.50;;;4.33;;
44026;SDS011;29696;55.698;37.460;2023-05-07T01:39:32;6.13;;;4.60;;
44026;SDS011;29696;55.698;37.460;2023-05-07T01:42:02;9.83;;;4.17;;
44026;SDS011;29696;55.698;37.460;2023-05-07T01:44:28;7.30;;;4.73;;
44026;SDS011;29696;55.698;37.460;2023-05-07T01:46:56;7.40;;;4.70;;
44026;SDS011;29696;55.698;37.460;2023-05-07T01:49:24;6.30;;;4.93;;
44026;SDS011;29696;55.698;37.460;2023-05-07T01:51:51;10.83;;;5.63;;
44026;SDS011;29696;55.698;37.460;2023-05-07T01:54:18;7.77;;;4.43;;
44026;SDS011;29696;55.698;37.460;2023-05-07T01:56:46;9.40;;;4.57;;
44026;SDS011;29696;55.698;37.460;2023-05-07T01:59:14;8.93;;;4.90;;
44026;SDS011;29696;55.698;37.460;2023-05-07T02:01:41;7.73;;;5.27;;
44026;SDS011;29696;55.698;37.460;2023-05-07T02:04:07;10.27;;;4.80;;
44026;SDS011;29696;55.698;37.460;2023-05-07T02:06:34;7.47;;;3.97;;
44026;SDS011;29696;55.698;37.460;2023-05-07T02:09:04;7.00;;;4.33;;
44026;SDS011;29696;55.698;37.460;2023-05-07T02:11:31;12.83;;;4.67;;
44026;SDS011;29696;55.698;37.460;2023-05-07T02:13:57;6.20;;;4.33;;
44026;SDS011;29696;55.698;37.460;2023-05-07T02:16:24;6.53;;;4.33;;
44026;SDS011;29696;55.698;37.460;2023-05-07T02:18:51;5.83;;;4.60;;
44026;SDS011;29696;55.698;37.460;2023-05-07T02:21:18;7.57;;;4.80;;
44026;SDS011;29696;55.698;37.460;2023-05-07T02:23:44;5.73;;;4.27;;
44026;SDS011;29696;55.698;37.460;2023-05-07T02:26:11;7.20;;;4.40;;
44026;SDS011;29696;55.698;37.460;2023-05-07T02:28:38;8.33;;;4.33;;
44026;SDS011;29696;55.698;37.460;2023-05-07T02:31:05;4.43;;;3.90;;
44026;SDS011;29696;55.698;37.460;2023-05-07T02:33:33;4.77;;;4.17;;
44026;SDS011;29696;55.698;37.460;2023-05-07T02:36:06;3.73;;;3.33;;
44026;SDS011;29696;55.698;37.460;2023-05-07T02:38:34;6.07;;;4.30;;
44026;SDS011;29696;55.698;37.460;2023-05-07T02:41:01;6.03;;;4.07;;
44026;SDS011;29696;55.698;37.460;2023-05-07T02:43:28;5.83;;;4.07;;
44026;SDS011;29696;55.698;37.460;2023-05-07T02:48:55;5.00;;;4.40;;
44026;SDS011;29696;55.698;37.460;2023-05-07T02:51:22;9.77;;;5.03;;
44026;SDS011;29696;55.698;37.460;2023-05-07T02:53:50;7.63;;;4.77;;
44026;SDS011;29696;55.698;37.460;2023-05-07T02:56:16;11.33;;;4.10;;
44026;SDS011;29696;55.698;37.460;2023-05-07T02:58:42;6.80;;;3.20;;
44026;SDS011;29696;55.698;37.460;2023-05-07T03:01:10;5.87;;;3.40;;
44026;SDS011;29696;55.698;37.460;2023-05-07T03:03:57;6.67;;;4.87;;
44026;SDS011;29696;55.698;37.460;2023-05-07T03:06:24;8.90;;;4.47;;
44026;SDS011;29696;55.698;37.460;2023-05-07T03:08:52;10.77;;;4.23;;
44026;SDS011;29696;55.698;37.460;2023-05-07T03:11:18;6.30;;;3.50;;
44026;SDS011;29696;55.698;37.460;2023-05-07T03:13:45;7.60;;;4.27;;
44026;SDS011;29696;55.698;37.460;2023-05-07T03:16:12;9.70;;;4.13;;
44026;SDS011;29696;55.698;37.460;2023-05-07T03:18:38;5.93;;;4.33;;
44026;SDS011;29696;55.698;37.460;2023-05-07T03:21:04;7.50;;;4.10;;
44026;SDS011;29696;55.698;37.460;2023-05-07T03:23:31;5.17;;;3.57;;
44026;SDS011;29696;55.698;37.460;2023-05-07T03:25:57;4.23;;;3.40;;
44026;SDS011;29696;55.698;37.460;2023-05-07T03:28:24;5.27;;;4.00;;
44026;SDS011;29696;55.698;37.460;2023-05-07T03:30:55;6.47;;;3.10;;
44026;SDS011;29696;55.698;37.460;2023-05-07T03:33:22;3.97;;;3.50;;
44026;SDS011;29696;55.698;37.460;2023-05-07T03:35:49;4.30;;;2.53;;
44026;SDS011;29696;55.698;37.460;2023-05-07T03:38:20;3.47;;;2.80;;
44026;SDS011;29696;55.698;37.460;2023-05-07T03:40:46;5.43;;;3.00;;
44026;SDS011;29696;55.698;37.460;2023-05-07T03:43:13;2.83;;;2.53;;
44026;SDS011;29696;55.698;37.460;2023-05-07T03:45:44;3.20;;;2.73;;
44026;SDS011;29696;55.698;37.460;2023-05-07T03:48:15;4.10;;;2.70;;
44026;SDS011;29696;55.698;37.460;2023-05-07T03:50:42;5.90;;;2.63;;
44026;SDS011;29696;55.698;37.460;2023-05-07T03:53:09;4.28;;;3.08;;
44026;SDS011;29696;55.698;37.460;2023-05-07T03:55:39;2.90;;;2.65;;
44026;SDS011;29696;55.698;37.460;2023-05-07T03:58:06;4.25;;;3.03;;
44026;SDS011;29696;55.698;37.460;2023-05-07T04:00:32;3.42;;;2.67;;
44026;SDS011;29696;55.698;37.460;2023-05-07T04:03:06;3.38;;;2.10;;
44026;SDS011;29696;55.698;37.460;2023-05-07T04:05:33;3.50;;;2.40;;
44026;SDS011;29696;55.698;37.460;2023-05-07T04:08:02;2.53;;;2.25;;
44026;SDS011;29696;55.698;37.460;2023-05-07T04:10:37;3.25;;;2.50;;
44026;SDS011;29696;55.698;37.460;2023-05-07T04:13:08;2.90;;;2.63;;
44026;SDS011;29696;55.698;37.460;2023-05-07T04:15:35;5.15;;;2.80;;
44026;SDS011;29696;55.698;37.460;2023-05-07T04:18:03;2.63;;;2.30;;
44026;SDS011;29696;55.698;37.460;2023-05-07T04:20:30;2.53;;;2.28;;
44026;SDS011;29696;55.698;37.460;2023-05-07T04:23:02;4.25;;;2.70;;
44026;SDS011;29696;55.698;37.460;2023-05-07T04:25:30;6.10;;;3.10;;
44026;SDS011;29696;55.698;37.460;2023-05-07T04:28:07;4.68;;;2.47;;
44026;SDS011;29696;55.698;37.460;2023-05-07T04:30:35;4.47;;;3.03;;
44026;SDS011;29696;55.698;37.460;2023-05-07T04:33:03;6.72;;;3.05;;
44026;SDS011;29696;55.698;37.460;2023-05-07T04:35:31;5.75;;;2.72;;
44026;SDS011;29696;55.698;37.460;2023-05-07T04:37:58;4.53;;;1.98;;
44026;SDS011;29696;55.698;37.460;2023-05-07T04:40:24;3.25;;;2.15;;
44026;SDS011;29696;55.698;37.460;2023-05-07T04:42:51;2.40;;;2.13;;
44026;SDS011;29696;55.698;37.460;2023-05-07T04:45:19;2.75;;;2.20;;
44026;SDS011;29696;55.698;37.460;2023-05-07T04:47:47;6.53;;;2.30;;
44026;SDS011;29696;55.698;37.460;2023-05-07T04:50:13;3.13;;;2.53;;
44026;SDS011;29696;55.698;37.460;2023-05-07T04:52:41;4.72;;;2.55;;
44026;SDS011;29696;55.698;37.460;2023-05-07T04:55:08;6.70;;;3.15;;
44026;SDS011;29696;55.698;37.460;2023-05-07T04:57:37;3.15;;;2.38;;
44026;SDS011;29696;55.698;37.460;2023-05-07T05:00:06;7.60;;;1.92;;
44026;SDS011;29696;55.698;37.460;2023-05-07T05:02:35;3.45;;;1.58;;
44026;SDS011;29696;55.698;37.460;2023-05-07T05:05:02;2.65;;;1.98;;
44026;SDS011;29696;55.698;37.460;2023-05-07T05:07:32;9.88;;;2.78;;
44026;SDS011;29696;55.698;37.460;2023-05-07T05:09:59;4.88;;;1.60;;
44026;SDS011;29696;55.698;37.460;2023-05-07T05:12:25;1.40;;;1.30;;
44026;SDS011;29696;55.698;37.460;2023-05-07T05:14:52;5.30;;;1.90;;
44026;SDS011;29696;55.698;37.460;2023-05-07T05:17:19;1.92;;;1.80;;
44026;SDS011;29696;55.698;37.460;2023-05-07T05:19:45;3.38;;;2.25;;
44026;SDS011;29696;55.698;37.460;2023-05-07T05:22:12;1.67;;;1.58;;
44026;SDS011;29696;55.698;37.460;2023-05-07T05:24:38;3.28;;;2.33;;
44026;SDS011;29696;55.698;37.460;2023-05-07T05:27:05;2.00;;;1.60;;
44026;SDS011;29696;55.698;37.460;2023-05-07T05:29:32;3.83;;;1.70;;
44026;SDS011;29696;55.698;37.460;2023-05-07T05:31:58;2.08;;;1.65;;
44026;SDS011;29696;55.698;37.460;2023-05-07T05:34:26;1.35;;;1.05;;
44026;SDS011;29696;55.698;37.460;2023-05-07T05:36:54;7.55;;;1.17;;
44026;SDS011;29696;55.698;37.460;2023-05-07T05:39:21;1.50;;;0.90;;
44026;SDS011;29696;55.698;37.460;2023-05-07T05:41:49;1.55;;;1.45;;
44026;SDS011;29696;55.698;37.460;2023-05-07T05:44:16;2.08;;;1.25;;
44026;SDS011;29696;55.698;37.460;2023-05-07T05:46:43;1.42;;;1.33;;
44026;SDS011;29696;55.698;37.460;2023-05-07T05:49:10;3.63;;;1.48;;
44026;SDS011;29696;55.698;37.460;2023-05-07T05:51:37;1.48;;;1.38;;
44026;SDS011;29696;55.698;37.460;2023-05-07T05:54:05;3.35;;;1.80;;
44026;SDS011;29696;55.698;37.460;2023-05-07T05:56:32;3.30;;;2.08;;
44026;SDS011;29696;55.698;37.460;2023-05-07T05:58:59;1.25;;;1.02;;
44026;SDS011;29696;55.698;37.460;2023-05-07T06:01:26;5.45;;;1.60;;
44026;SDS011;29696;55.698;37.460;2023-05-07T06:03:55;1.40;;;1.30;;
44026;SDS011;29696;55.698;37.460;2023-05-07T06:06:22;2.08;;;1.83;;
44026;SDS011;29696;55.698;37.460;2023-05-07T06:08:48;2.30;;;1.90;;
44026;SDS011;29696;55.698;37.460;2023-05-07T06:11:20;2.10;;;1.90;;
44026;SDS011;29696;55.698;37.460;2023-05-07T06:13:47;2.00;;;1.40;;
44026;SDS011;29696;55.698;37.460;2023-05-07T06:16:14;2.42;;;1.40;;
44026;SDS011;29696;55.698;37.460;2023-05-07T06:18:41;1.60;;;1.50;;
44026;SDS011;29696;55.698;37.460;2023-05-07T06:21:09;2.28;;;1.67;;
44026;SDS011;29696;55.698;37.460;2023-05-07T06:23:36;6.07;;;1.77;;
44026;SDS011;29696;55.698;37.460;2023-05-07T06:26:04;1.45;;;1.30;;
44026;SDS011;29696;55.698;37.460;2023-05-07T06:28:36;1.50;;;1.33;;
44026;SDS011;29696;55.698;37.460;2023-05-07T06:31:11;2.25;;;1.40;;
44026;SDS011;29696;55.698;37.460;2023-05-07T06:33:39;1.77;;;1.17;;
44026;SDS011;29696;55.698;37.460;2023-05-07T06:36:07;2.78;;;1.25;;
44026;SDS011;29696;55.698;37.460;2023-05-07T06:38:34;2.60;;;2.15;;
44026;SDS011;29696;55.698;37.460;2023-05-07T06:41:01;2.67;;;1.92;;
44026;SDS011;29696;55.698;37.460;2023-05-07T06:43:27;1.60;;;1.50;;
44026;SDS011;29696;55.698;37.460;2023-05-07T06:46:01;2.88;;;1.67;;
44026;SDS011;29696;55.698;37.460;2023-05-07T06:48:27;5.97;;;2.80;;
44026;SDS011;29696;55.698;37.460;2023-05-07T06:51:00;1.45;;;1.23;;
44026;SDS011;29696;55.698;37.460;2023-05-07T06:53:28;2.88;;;1.70;;
44026;SDS011;29696;55.698;37.460;2023-05-07T06:55:58;3.53;;;1.35;;
44026;SDS011;29696;55.698;37.460;2023-05-07T06:58:25;3.95;;;1.52;;
44026;SDS011;29696;55.698;37.460;2023-05-07T07:00:51;1.40;;;1.30;;
44026;SDS011;29696;55.698;37.460;2023-05-07T07:03:18;1.75;;;1.20;;
44026;SDS011;29696;55.698;37.460;2023-05-07T07:05:46;2.05;;;1.48;;
44026;SDS011;29696;55.698;37.460;2023-05-07T07:08:13;2.95;;;1.88;;
44026;SDS011;29696;55.698;37.460;2023-05-07T07:10:40;13.25;;;2.05;;
44026;SDS011;29696;55.698;37.460;2023-05-07T07:13:07;1.75;;;1.58;;
44026;SDS011;29696;55.698;37.460;2023-05-07T07:15:33;5.82;;;1.73;;
44026;SDS011;29696;55.698;37.460;2023-05-07T07:18:00;3.65;;;2.00;;
44026;SDS011;29696;55.698;37.460;2023-05-07T07:20:27;2.83;;;1.42;;
44026;SDS011;29696;55.698;37.460;2023-05-07T07:22:55;3.95;;;1.90;;
44026;SDS011;29696;55.698;37.460;2023-05-07T07:25:21;7.13;;;2.88;;
44026;SDS011;29696;55.698;37.460;2023-05-07T07:27:49;4.18;;;1.83;;
44026;SDS011;29696;55.698;37.460;2023-05-07T07:30:16;2.22;;;1.40;;
44026;SDS011;29696;55.698;37.460;2023-05-07T07:32:46;6.10;;;2.17;;
44026;SDS011;29696;55.698;37.460;2023-05-07T07:35:13;3.40;;;1.58;;
44026;SDS011;29696;55.698;37.460;2023-05-07T07:37:39;7.63;;;2.20;;
44026;SDS011;29696;55.698;37.460;2023-05-07T07:40:06;6.35;;;1.67;;
44026;SDS011;29696;55.698;37.460;2023-05-07T07:42:34;6.15;;;2.50;;
44026;SDS011;29696;55.698;37.460;2023-05-07T07:45:01;3.53;;;1.27;;
44026;SDS011;29696;55.698;37.460;2023-05-07T07:47:32;1.67;;;1.58;;
44026;SDS011;29696;55.698;37.460;2023-05-07T07:49:58;3.47;;;2.40;;
44026;SDS011;29696;55.698;37.460;2023-05-07T07:52:25;3.80;;;1.55;;
44026;SDS011;29696;55.698;37.460;2023-05-07T07:54:51;5.30;;;2.45;;
44026;SDS011;29696;55.698;37.460;2023-05-07T07:57:18;1.70;;;1.55;;
44026;SDS011;29696;55.698;37.460;2023-05-07T07:59:45;1.75;;;1.15;;
44026;SDS011;29696;55.698;37.460;2023-05-07T08:02:14;1.67;;;1.35;;
44026;SDS011;29696;55.698;37.460;2023-05-07T08:04:40;3.25;;;1.52;;
44026;SDS011;29696;55.698;37.460;2023-05-07T08:07:09;2.53;;;1.42;;
44026;SDS011;29696;55.698;37.460;2023-05-07T08:09:40;2.22;;;1.75;;
44026;SDS011;29696;55.698;37.460;2023-05-07T08:12:08;1.20;;;1.13;;
44026;SDS011;29696;55.698;37.460;2023-05-07T08:14:35;4.00;;;1.60;;
44026;SDS011;29696;55.698;37.460;2023-05-07T08:17:04;2.65;;;1.30;;
44026;SDS011;29696;55.698;37.460;2023-05-07T08:19:31;2.05;;;1.25;;
44026;SDS011;29696;55.698;37.460;2023-05-07T08:21:58;3.95;;;1.75;;
44026;SDS011;29696;55.698;37.460;2023-05-07T08:24:25;1.55;;;1.42;;
44026;SDS011;29696;55.698;37.460;2023-05-07T08:26:52;3.13;;;1.35;;
44026;SDS011;29696;55.698;37.460;2023-05-07T08:29:19;2.78;;;1.67;;
44026;SDS011;29696;55.698;37.460;2023-05-07T08:31:46;4.53;;;1.20;;
44026;SDS011;29696;55.698;37.460;2023-05-07T08:34:13;1.73;;;1.23;;
44026;SDS011;29696;55.698;37.460;2023-05-07T08:36:42;3.45;;;1.20;;
44026;SDS011;29696;55.698;37.460;2023-05-07T08:39:10;1.50;;;1.40;;
44026;SDS011;29696;55.698;37.460;2023-05-07T08:41:36;2.65;;;1.13;;
44026;SDS011;29696;55.698;37.460;2023-05-07T08:44:04;0.93;;;0.90;;
44026;SDS011;29696;55.698;37.460;2023-05-07T08:46:37;1.02;;;1.00;;
44026;SDS011;29696;55.698;37.460;2023-05-07T08:49:05;3.57;;;1.70;;
44026;SDS011;29696;55.698;37.460;2023-05-07T08:51:31;1.30;;;1.17;;
44026;SDS011;29696;55.698;37.460;2023-05-07T08:53:58;1.13;;;1.03;;
44026;SDS011;29696;55.698;37.460;2023-05-07T08:56:31;3.27;;;1.13;;
44026;SDS011;29696;55.698;37.460;2023-05-07T08:58:58;4.07;;;1.10;;
44026;SDS011;29696;55.698;37.460;2023-05-07T09:01:26;3.70;;;1.20;;
44026;SDS011;29696;55.698;37.460;2023-05-07T09:03:54;3.13;;;1.40;;
44026;SDS011;29696;55.698;37.460;2023-05-07T09:06:22;6.63;;;1.87;;
44026;SDS011;29696;55.698;37.460;2023-05-07T09:08:52;2.30;;;1.60;;
44026;SDS011;29696;55.698;37.460;2023-05-07T09:11:21;3.83;;;1.73;;
44026;SDS011;29696;55.698;37.460;2023-05-07T09:13:53;2.50;;;1.63;;
44026;SDS011;29696;55.698;37.460;2023-05-07T09:16:23;2.23;;;1.50;;
44026;SDS011;29696;55.698;37.460;2023-05-07T09:18:51;2.67;;;1.50;;
44026;SDS011;29696;55.698;37.460;2023-05-07T09:21:19;2.13;;;1.40;;
44026;SDS011;29696;55.698;37.460;2023-05-07T09:23:52;2.50;;;1.40;;
44026;SDS011;29696;55.698;37.460;2023-05-07T09:26:24;4.20;;;1.50;;
44026;SDS011;29696;55.698;37.460;2023-05-07T09:28:51;3.47;;;1.37;;
44026;SDS011;29696;55.698;37.460;2023-05-07T09:31:19;3.53;;;1.20;;
44026;SDS011;29696;55.698;37.460;2023-05-07T09:33:46;4.07;;;1.87;;
44026;SDS011;29696;55.698;37.460;2023-05-07T09:36:13;2.53;;;2.33;;
44026;SDS011;29696;55.698;37.460;2023-05-07T09:38:41;3.63;;;1.53;;
44026;SDS011;29696;55.698;37.460;2023-05-07T09:41:09;4.57;;;2.23;;
44026;SDS011;29696;55.698;37.460;2023-05-07T09:43:44;1.33;;;1.23;;
44026;SDS011;29696;55.698;37.460;2023-05-07T09:46:14;4.23;;;1.53;;
44026;SDS011;29696;55.698;37.460;2023-05-07T09:48:48;1.57;;;1.47;;
44026;SDS011;29696;55.698;37.460;2023-05-07T09:51:22;3.47;;;1.83;;
44026;SDS011;29696;55.698;37.460;2023-05-07T09:53:56;4.13;;;1.40;;
44026;SDS011;29696;55.698;37.460;2023-05-07T09:56:23;2.30;;;1.53;;
44026;SDS011;29696;55.698;37.460;2023-05-07T09:58:52;2.47;;;1.90;;
44026;SDS011;29696;55.698;37.460;2023-05-07T10:01:20;3.80;;;2.10;;
44026;SDS011;29696;55.698;37.460;2023-05-07T10:03:49;1.93;;;1.40;;
44026;SDS011;29696;55.698;37.460;2023-05-07T10:06:17;3.17;;;1.53;;
44026;SDS011;29696;55.698;37.460;2023-05-07T10:08:44;1.73;;;1.30;;
44026;SDS011;29696;55.698;37.460;2023-05-07T10:11:12;3.63;;;1.50;;
44026;SDS011;29696;55.698;37.460;2023-05-07T10:13:41;1.67;;;1.37;;
44026;SDS011;29696;55.698;37.460;2023-05-07T10:16:09;2.70;;;1.53;;
44026;SDS011;29696;55.698;37.460;2023-05-07T10:18:42;2.10;;;1.73;;
44026;SDS011;29696;55.698;37.460;2023-05-07T10:21:18;2.07;;;1.80;;
44026;SDS011;29696;55.698;37.460;2023-05-07T10:23:51;1.53;;;1.10;;
44026;SDS011;29696;55.698;37.460;2023-05-07T10:26:26;2.10;;;1.30;;
44026;SDS011;29696;55.698;37.460;2023-05-07T10:28:56;2.60;;;1.87;;
44026;SDS011;29696;55.698;37.460;2023-05-07T10:34:37;1.75;;;1.63;;
44026;SDS011;29696;55.698;37.460;2023-05-07T10:37:08;2.60;;;2.27;;
44026;SDS011;29696;55.698;37.460;2023-05-07T10:39:36;3.53;;;2.03;;
44026;SDS011;29696;55.698;37.460;2023-05-07T10:42:07;3.13;;;1.80;;
44026;SDS011;29696;55.698;37.460;2023-05-07T10:44:35;2.20;;;1.73;;
44026;SDS011;29696;55.698;37.460;2023-05-07T10:55:38;2.70;;;1.47;;
44026;SDS011;29696;55.698;37.460;2023-05-07T11:04:27;1.57;;;1.03;;
44026;SDS011;29696;55.698;37.460;2023-05-07T11:07:26;2.00;;;1.77;;
44026;SDS011;29696;55.698;37.460;2023-05-07T11:09:59;3.57;;;1.40;;
44026;SDS011;29696;55.698;37.460;2023-05-07T11:12:53;6.87;;;2.27;;
44026;SDS011;29696;55.698;37.460;2023-05-07T11:15:35;2.10;;;1.90;;
44026;SDS011;29696;55.698;37.460;2023-05-07T11:18:08;1.67;;;1.47;;
44026;SDS011;29696;55.698;37.460;2023-05-07T11:26:49;4.57;;;2.30;;
44026;SDS011;29696;55.698;37.460;2023-05-07T11:29:18;2.30;;;1.40;;
44026;SDS011;29696;55.698;37.460;2023-05-07T11:31:53;9.33;;;2.03;;
44026;SDS011;29696;55.698;37.460;2023-05-07T11:34:23;2.33;;;2.13;;
44026;SDS011;29696;55.698;37.460;2023-05-07T11:36:54;5.53;;;2.47;;
44026;SDS011;29696;55.698;37.460;2023-05-07T11:39:31;3.10;;;2.17;;
44026;SDS011;29696;55.698;37.460;2023-05-07T11:41:59;2.27;;;1.97;;
44026;SDS011;29696;55.698;37.460;2023-05-07T11:44:47;1.97;;;1.77;;
44026;SDS011;29696;55.698;37.460;2023-05-07T11:55:38;5.10;;;1.97;;
44026;SDS011;29696;55.698;37.460;2023-05-07T11:58:05;6.40;;;1.90;;
44026;SDS011;29696;55.698;37.460;2023-05-07T12:00:31;2.53;;;1.73;;
44026;SDS011;29696;55.698;37.460;2023-05-07T12:03:02;3.53;;;2.10;;
44026;SDS011;29696;55.698;37.460;2023-05-07T12:05:30;3.63;;;1.53;;
44026;SDS011;29696;55.698;37.460;2023-05-07T12:07:59;1.73;;;1.47;;
44026;SDS011;29696;55.698;37.460;2023-05-07T12:10:26;8.23;;;2.40;;
44026;SDS011;29696;55.698;37.460;2023-05-07T12:12:52;2.07;;;1.67;;
44026;SDS011;29696;55.698;37.460;2023-05-07T12:15:22;3.43;;;2.70;;
44026;SDS011;29696;55.698;37.460;2023-05-07T12:17:48;1.80;;;1.60;;
44026;SDS011;29696;55.698;37.460;2023-05-07T12:20:16;2.07;;;1.67;;
44026;SDS011;29696;55.698;37.460;2023-05-07T12:22:43;2.97;;;1.90;;
44026;SDS011;29696;55.698;37.460;2023-05-07T12:25:09;4.93;;;1.87;;
44026;SDS011;29696;55.698;37.460;2023-05-07T12:27:39;4.53;;;1.50;;
44026;SDS011;29696;55.698;37.460;2023-05-07T12:30:08;2.30;;;2.10;;
44026;SDS011;29696;55.698;37.460;2023-05-07T12:32:36;11.33;;;2.97;;
44026;SDS011;29696;55.698;37.460;2023-05-07T12:35:02;2.20;;;1.40;;
44026;SDS011;29696;55.698;37.460;2023-05-07T12:37:31;2.30;;;1.70;;
44026;SDS011;29696;55.698;37.460;2023-05-07T12:43:00;3.43;;;1.70;;
44026;SDS011;29696;55.698;37.460;2023-05-07T12:45:27;2.00;;;1.80;;
44026;SDS011;29696;55.698;37.460;2023-05-07T12:47:53;4.03;;;1.50;;
44026;SDS011;29696;55.698;37.460;2023-05-07T12:50:19;2.93;;;1.70;;
44026;SDS011;29696;55.698;37.460;2023-05-07T12:52:49;2.43;;;1.60;;
44026;SDS011;29696;55.698;37.460;2023-05-07T12:55:15;3.30;;;1.90;;
44026;SDS011;29696;55.698;37.460;2023-05-07T12:57:47;7.33;;;2.20;;
44026;SDS011;29696;55.698;37.460;2023-05-07T13:00:15;3.43;;;2.73;;
44026;SDS011;29696;55.698;37.460;2023-05-07T13:02:42;2.67;;;1.93;;
44026;SDS011;29696;55.698;37.460;2023-05-07T13:05:12;2.63;;;1.80;;
44026;SDS011;29696;55.698;37.460;2023-05-07T13:07:38;2.97;;;1.97;;
44026;SDS011;29696;55.698;37.460;2023-05-07T13:10:06;3.27;;;2.37;;
44026;SDS011;29696;55.698;37.460;2023-05-07T13:12:33;2.83;;;1.87;;
44026;SDS011;29696;55.698;37.460;2023-05-07T13:15:00;5.83;;;1.90;;
44026;SDS011;29696;55.698;37.460;2023-05-07T13:17:28;2.97;;;2.03;;
44026;SDS011;29696;55.698;37.460;2023-05-07T13:19:54;3.70;;;2.33;;
44026;SDS011;29696;55.698;37.460;2023-05-07T13:22:20;2.07;;;1.73;;
44026;SDS011;29696;55.698;37.460;2023-05-07T13:24:47;4.40;;;1.80;;
44026;SDS011;29696;55.698;37.460;2023-05-07T13:27:13;5.93;;;1.60;;
44026;SDS011;29696;55.698;37.460;2023-05-07T13:29:39;1.83;;;1.53;;
44026;SDS011;29696;55.698;37.460;2023-05-07T13:32:06;8.60;;;2.10;;
44026;SDS011;29696;55.698;37.460;2023-05-07T13:34:32;2.30;;;1.70;;
44026;SDS011;29696;55.698;37.460;2023-05-07T13:36:59;4.87;;;1.43;;
44026;SDS011;29696;55.698;37.460;2023-05-07T13:39:25;3.67;;;1.70;;
44026;SDS011;29696;55.698;37.460;2023-05-07T13:41:52;2.37;;;1.43;;
44026;SDS011;29696;55.698;37.460;2023-05-07T13:44:18;2.83;;;1.90;;
44026;SDS011;29696;55.698;37.460;2023-05-07T13:46:45;3.83;;;1.70;;
44026;SDS011;29696;55.698;37.460;2023-05-07T13:49:11;2.77;;;2.20;;
44026;SDS011;29696;55.698;37.460;2023-05-07T13:51:38;4.13;;;1.80;;
44026;SDS011;29696;55.698;37.460;2023-05-07T13:54:05;5.67;;;2.57;;
44026;SDS011;29696;55.698;37.460;2023-05-07T13:56:31;3.07;;;2.30;;
44026;SDS011;29696;55.698;37.460;2023-05-07T13:58:58;4.43;;;2.03;;
44026;SDS011;29696;55.698;37.460;2023-05-07T14:01:25;2.23;;;1.83;;
44026;SDS011;29696;55.698;37.460;2023-05-07T14:03:51;2.07;;;1.67;;
44026;SDS011;29696;55.698;37.460;2023-05-07T14:06:17;1.97;;;1.47;;
44026;SDS011;29696;55.698;37.460;2023-05-07T14:08:44;2.90;;;1.83;;
44026;SDS011;29696;55.698;37.460;2023-05-07T14:11:10;2.23;;;1.60;;
44026;SDS011;29696;55.698;37.460;2023-05-07T14:13:37;2.00;;;1.80;;
44026;SDS011;29696;55.698;37.460;2023-05-07T14:16:04;3.00;;;2.10;;
44026;SDS011;29696;55.698;37.460;2023-05-07T14:18:30;3.87;;;2.17;;
44026;SDS011;29696;55.698;37.460;2023-05-07T14:20:57;2.43;;;1.87;;
44026;SDS011;29696;55.698;37.460;2023-05-07T14:23:23;2.80;;;1.93;;
44026;SDS011;29696;55.698;37.460;2023-05-07T14:25:52;3.47;;;1.90;;
44026;SDS011;29696;55.698;37.460;2023-05-07T14:28:19;2.13;;;1.87;;
44026;SDS011;29696;55.698;37.460;2023-05-07T14:30:46;1.93;;;1.70;;
44026;SDS011;29696;55.698;37.460;2023-05-07T14:33:12;3.30;;;1.93;;
44026;SDS011;29696;55.698;37.460;2023-05-07T14:35:39;6.17;;;2.07;;
44026;SDS011;29696;55.698;37.460;2023-05-07T14:38:05;4.33;;;1.73;;
44026;SDS011;29696;55.698;37.460;2023-05-07T14:40:32;4.00;;;2.10;;
44026;SDS011;29696;55.698;37.460;2023-05-07T14:42:58;3.13;;;2.30;;
44026;SDS011;29696;55.698;37.460;2023-05-07T14:45:25;3.77;;;2.07;;
44026;SDS011;29696;55.698;37.460;2023-05-07T14:47:51;1.67;;;1.53;;
44026;SDS011;29696;55.698;37.460;2023-05-07T14:50:17;11.20;;;2.40;;
44026;SDS011;29696;55.698;37.460;2023-05-07T14:52:44;4.00;;;2.63;;
44026;SDS011;29696;55.698;37.460;2023-05-07T14:55:11;4.83;;;2.37;;
44026;SDS011;29696;55.698;37.460;2023-05-07T14:57:38;3.33;;;2.10;;
44026;SDS011;29696;55.698;37.460;2023-05-07T15:00:04;11.07;;;2.87;;
44026;SDS011;29696;55.698;37.460;2023-05-07T15:02:33;6.53;;;2.17;;
44026;SDS011;29696;55.698;37.460;2023-05-07T15:05:00;6.60;;;2.27;;
44026;SDS011;29696;55.698;37.460;2023-05-07T15:07:30;4.70;;;2.40;;
44026;SDS011;29696;55.698;37.460;2023-05-07T15:09:59;7.50;;;3.43;;
44026;SDS011;29696;55.698;37.460;2023-05-07T15:12:25;4.70;;;2.33;;
44026;SDS011;29696;55.698;37.460;2023-05-07T15:14:51;4.67;;;2.63;;
44026;SDS011;29696;55.698;37.460;2023-05-07T15:17:18;2.40;;;1.77;;